Aviation Digital Data Service (ADDS)

Output produced by METARs form (1309 UTC 19 January 2019)
found at http://www.aviationweather.gov/metar/data/
 
METAR text: URWW 191300Z 24007MPS 1600 1100NE R24/1100D -DZ BR OVC001 01/01 Q1014 R24/710160 TEMPO 0300 -FZDZ FZFG RMK QBB050 OBST OBSC
Conditions at: URWW (VOLGOGRAD/GUMRAK, RU) observed 1300 UTC 19 January 2019
Temperature: 1.0°C (34°F)
Dewpoint: 1.0°C (34°F) [RH = 100%]
Pressure (altimeter): 29.94 inches Hg (1014.0 mb)
Winds: from the WSW (240 degrees) at 16 MPH (14 knots; 7.2 m/s)
Visibility: 0.99 miles (1.59 km)
Ceiling: 100 feet AGL
Clouds: overcast cloud deck at 100 feet AGL
Weather: -DZ BR  (light drizzle, mist)

METAR text: URWW 191230Z 23006MPS 1700 1000NE R24/1000U -DZ BR OVC001 01/01 Q1014 R24/710160 TEMPO 0300 -FZDZ FZFG RMK QBB050 OBST OBSC
Conditions at: URWW (VOLGOGRAD/GUMRAK, RU) observed 1230 UTC 19 January 2019
Temperature: 1.0°C (34°F)
Dewpoint: 1.0°C (34°F) [RH = 100%]
Pressure (altimeter): 29.94 inches Hg (1014.0 mb)
Winds: from the SW (230 degrees) at 14 MPH (12 knots; 6.2 m/s)
Visibility: 1.06 miles (1.71 km)
Ceiling: 100 feet AGL
Clouds: overcast cloud deck at 100 feet AGL
Weather: -DZ BR  (light drizzle, mist)

METAR text: URWW 191200Z 24007MPS 2200 1200NE R24/1200D -DZ BR OVC002 01/01 Q1014 R24/710160 TEMPO 0300 -FZDZ FZFG RMK QBB060 OBST OBSC
Conditions at: URWW (VOLGOGRAD/GUMRAK, RU) observed 1200 UTC 19 January 2019
Temperature: 1.0°C (34°F)
Dewpoint: 1.0°C (34°F) [RH = 100%]
Pressure (altimeter): 29.94 inches Hg (1014.0 mb)
Winds: from the WSW (240 degrees) at 16 MPH (14 knots; 7.2 m/s)
Visibility: 1.37 miles (2.20 km)
Ceiling: 200 feet AGL
Clouds: overcast cloud deck at 200 feet AGL
Weather: -DZ BR  (light drizzle, mist)

METAR text: URWW 191130Z 24007MPS 9000 OVC004 01/00 Q1014 R24/710160 TEMPO 0300 FG OVC002 RMK OBST OBSC
Conditions at: URWW (VOLGOGRAD/GUMRAK, RU) observed 1130 UTC 19 January 2019
Temperature: 1.0°C (34°F)
Dewpoint: 0.0°C (32°F) [RH = 93%]
Pressure (altimeter): 29.94 inches Hg (1014.0 mb)
Winds: from the WSW (240 degrees) at 16 MPH (14 knots; 7.2 m/s)
Visibility: 6 miles ( 9 km)
Ceiling: 400 feet AGL
Clouds: overcast cloud deck at 400 feet AGL
Weather: no significant weather observed at this time

METAR text: URWW 191100Z 24007MPS 9999 OVC006 01/00 Q1014 R24/710160 NOSIG RMK OBST OBSC
Conditions at: URWW (VOLGOGRAD/GUMRAK, RU) observed 1100 UTC 19 January 2019
Temperature: 1.0°C (34°F)
Dewpoint: 0.0°C (32°F) [RH = 93%]
Pressure (altimeter): 29.94 inches Hg (1014.0 mb)
Winds: from the WSW (240 degrees) at 16 MPH (14 knots; 7.2 m/s)
Visibility: 6 or more miles (10+ km)
Ceiling: 600 feet AGL
Clouds: overcast cloud deck at 600 feet AGL
Weather: no significant weather observed at this time

METAR text: URWW 191030Z 23006MPS 9999 OVC007 01/00 Q1014 R24/710160 NOSIG RMK OBST OBSC
Conditions at: URWW (VOLGOGRAD/GUMRAK, RU) observed 1030 UTC 19 January 2019
Temperature: 1.0°C (34°F)
Dewpoint: 0.0°C (32°F) [RH = 93%]
Pressure (altimeter): 29.94 inches Hg (1014.0 mb)
Winds: from the SW (230 degrees) at 14 MPH (12 knots; 6.2 m/s)
Visibility: 6 or more miles (10+ km)
Ceiling: 700 feet AGL
Clouds: overcast cloud deck at 700 feet AGL
Weather: no significant weather observed at this time

METAR text: URWW 191000Z 23005MPS 9999 OVC007 01/00 Q1014 R24/710160 NOSIG RMK OBST OBSC
Conditions at: URWW (VOLGOGRAD/GUMRAK, RU) observed 1000 UTC 19 January 2019
Temperature: 1.0°C (34°F)
Dewpoint: 0.0°C (32°F) [RH = 93%]
Pressure (altimeter): 29.94 inches Hg (1014.0 mb)
Winds: from the SW (230 degrees) at 12 MPH (10 knots; 5.1 m/s)
Visibility: 6 or more miles (10+ km)
Ceiling: 700 feet AGL
Clouds: overcast cloud deck at 700 feet AGL
Weather: no significant weather observed at this time

METAR text: URWW 190930Z 24004MPS 9999 OVC007 01/00 Q1014 R24/710160 NOSIG RMK OBST OBSC
Conditions at: URWW (VOLGOGRAD/GUMRAK, RU) observed 0930 UTC 19 January 2019
Temperature: 1.0°C (34°F)
Dewpoint: 0.0°C (32°F) [RH = 93%]
Pressure (altimeter): 29.94 inches Hg (1014.0 mb)
Winds: from the WSW (240 degrees) at 9 MPH (8 knots; 4.1 m/s)
Visibility: 6 or more miles (10+ km)
Ceiling: 700 feet AGL
Clouds: overcast cloud deck at 700 feet AGL
Weather: no significant weather observed at this time

METAR text: URWW 190900Z 25005MPS 9999 OVC008 01/00 Q1015 R24/710160 NOSIG RMK OBST OBSC
Conditions at: URWW (VOLGOGRAD/GUMRAK, RU) observed 0900 UTC 19 January 2019
Temperature: 1.0°C (34°F)
Dewpoint: 0.0°C (32°F) [RH = 93%]
Pressure (altimeter): 29.97 inches Hg (1015.0 mb)
Winds: from the WSW (250 degrees) at 12 MPH (10 knots; 5.1 m/s)
Visibility: 6 or more miles (10+ km)
Ceiling: 800 feet AGL
Clouds: overcast cloud deck at 800 feet AGL
Weather: no significant weather observed at this time

METAR text: URWW 190830Z 25006MPS 9999 OVC007 01/00 Q1015 R24/710160 NOSIG RMK OBST OBSC
Conditions at: URWW (VOLGOGRAD/GUMRAK, RU) observed 0830 UTC 19 January 2019
Temperature: 1.0°C (34°F)
Dewpoint: 0.0°C (32°F) [RH = 93%]
Pressure (altimeter): 29.97 inches Hg (1015.0 mb)
Winds: from the WSW (250 degrees) at 14 MPH (12 knots; 6.2 m/s)
Visibility: 6 or more miles (10+ km)
Ceiling: 700 feet AGL
Clouds: overcast cloud deck at 700 feet AGL
Weather: no significant weather observed at this time

METAR text: URWW 190800Z 25005MPS 9999 OVC008 01/00 Q1015 R24/710160 NOSIG RMK OBST OBSC
Conditions at: URWW (VOLGOGRAD/GUMRAK, RU) observed 0800 UTC 19 January 2019
Temperature: 1.0°C (34°F)
Dewpoint: 0.0°C (32°F) [RH = 93%]
Pressure (altimeter): 29.97 inches Hg (1015.0 mb)
Winds: from the WSW (250 degrees) at 12 MPH (10 knots; 5.1 m/s)
Visibility: 6 or more miles (10+ km)
Ceiling: 800 feet AGL
Clouds: overcast cloud deck at 800 feet AGL
Weather: no significant weather observed at this time

METAR text: URWW 190730Z 24007MPS 9999 OVC006 01/00 Q1015 R24/710160 NOSIG RMK OBST OBSC
Conditions at: URWW (VOLGOGRAD/GUMRAK, RU) observed 0730 UTC 19 January 2019
Temperature: 1.0°C (34°F)
Dewpoint: 0.0°C (32°F) [RH = 93%]
Pressure (altimeter): 29.97 inches Hg (1015.0 mb)
Winds: from the WSW (240 degrees) at 16 MPH (14 knots; 7.2 m/s)
Visibility: 6 or more miles (10+ km)
Ceiling: 600 feet AGL
Clouds: overcast cloud deck at 600 feet AGL
Weather: no significant weather observed at this time

METAR text: URWW 190700Z 24006MPS 9999 OVC006 01/00 Q1015 R24/710160 NOSIG RMK OBST OBSC
Conditions at: URWW (VOLGOGRAD/GUMRAK, RU) observed 0700 UTC 19 January 2019
Temperature: 1.0°C (34°F)
Dewpoint: 0.0°C (32°F) [RH = 93%]
Pressure (altimeter): 29.97 inches Hg (1015.0 mb)
Winds: from the WSW (240 degrees) at 14 MPH (12 knots; 6.2 m/s)
Visibility: 6 or more miles (10+ km)
Ceiling: 600 feet AGL
Clouds: overcast cloud deck at 600 feet AGL
Weather: no significant weather observed at this time

METAR text: URWW 190630Z 24006MPS 9999 OVC006 01/00 Q1015 R24/710160 NOSIG RMK OBST OBSC
Conditions at: URWW (VOLGOGRAD/GUMRAK, RU) observed 0630 UTC 19 January 2019
Temperature: 1.0°C (34°F)
Dewpoint: 0.0°C (32°F) [RH = 93%]
Pressure (altimeter): 29.97 inches Hg (1015.0 mb)
Winds: from the WSW (240 degrees) at 14 MPH (12 knots; 6.2 m/s)
Visibility: 6 or more miles (10+ km)
Ceiling: 600 feet AGL
Clouds: overcast cloud deck at 600 feet AGL
Weather: no significant weather observed at this time

METAR text: URWW 190600Z 25007MPS 9999 OVC006 01/00 Q1015 R24/710160 NOSIG RMK OBST OBSC
Conditions at: URWW (VOLGOGRAD/GUMRAK, RU) observed 0600 UTC 19 January 2019
Temperature: 1.0°C (34°F)
Dewpoint: 0.0°C (32°F) [RH = 93%]
Pressure (altimeter): 29.97 inches Hg (1015.0 mb)
Winds: from the WSW (250 degrees) at 16 MPH (14 knots; 7.2 m/s)
Visibility: 6 or more miles (10+ km)
Ceiling: 600 feet AGL
Clouds: overcast cloud deck at 600 feet AGL
Weather: no significant weather observed at this time

METAR text: URWW 190530Z 24008MPS 9999 OVC006 01/00 Q1015 R24/710160 NOSIG RMK OBST OBSC
Conditions at: URWW (VOLGOGRAD/GUMRAK, RU) observed 0530 UTC 19 January 2019
Temperature: 1.0°C (34°F)
Dewpoint: 0.0°C (32°F) [RH = 93%]
Pressure (altimeter): 29.97 inches Hg (1015.0 mb)
Winds: from the WSW (240 degrees) at 18 MPH (16 knots; 8.2 m/s)
Visibility: 6 or more miles (10+ km)
Ceiling: 600 feet AGL
Clouds: overcast cloud deck at 600 feet AGL
Weather: no significant weather observed at this time

METAR text: URWW 190500Z 23005MPS 9999 OVC007 01/M00 Q1015 R24/710160 NOSIG RMK OBST OBSC
Conditions at: URWW (VOLGOGRAD/GUMRAK, RU) observed 0500 UTC 19 January 2019
Temperature: 1.0°C (34°F)
Dewpoint: 0.0°C (32°F) [RH = 93%]
Pressure (altimeter): 29.97 inches Hg (1015.0 mb)
Winds: from the SW (230 degrees) at 12 MPH (10 knots; 5.1 m/s)
Visibility: 6 or more miles (10+ km)
Ceiling: 700 feet AGL
Clouds: overcast cloud deck at 700 feet AGL
Weather: no significant weather observed at this time

METAR text: URWW 190430Z 24005MPS 9999 BKN008 01/00 Q1015 R24/710160 NOSIG RMK OBST OBSC
Conditions at: URWW (VOLGOGRAD/GUMRAK, RU) observed 0430 UTC 19 January 2019
Temperature: 1.0°C (34°F)
Dewpoint: 0.0°C (32°F) [RH = 93%]
Pressure (altimeter): 29.97 inches Hg (1015.0 mb)
Winds: from the WSW (240 degrees) at 12 MPH (10 knots; 5.1 m/s)
Visibility: 6 or more miles (10+ km)
Ceiling: 800 feet AGL
Clouds: broken clouds at 800 feet AGL
Weather: no significant weather observed at this time

METAR text: URWW 190400Z 24006MPS 9999 BKN010 01/M00 Q1015 R24/710160 NOSIG
Conditions at: URWW (VOLGOGRAD/GUMRAK, RU) observed 0400 UTC 19 January 2019
Temperature: 1.0°C (34°F)
Dewpoint: 0.0°C (32°F) [RH = 93%]
Pressure (altimeter): 29.97 inches Hg (1015.0 mb)
Winds: from the WSW (240 degrees) at 14 MPH (12 knots; 6.2 m/s)
Visibility: 6 or more miles (10+ km)
Ceiling: 1000 feet AGL
Clouds: broken clouds at 1000 feet AGL
Weather: no significant weather observed at this time

METAR text: URWW 190330Z 25006MPS 9999 BKN010 01/M00 Q1015 R24/710160 NOSIG
Conditions at: URWW (VOLGOGRAD/GUMRAK, RU) observed 0330 UTC 19 January 2019
Temperature: 1.0°C (34°F)
Dewpoint: 0.0°C (32°F) [RH = 93%]
Pressure (altimeter): 29.97 inches Hg (1015.0 mb)
Winds: from the WSW (250 degrees) at 14 MPH (12 knots; 6.2 m/s)
Visibility: 6 or more miles (10+ km)
Ceiling: 1000 feet AGL
Clouds: broken clouds at 1000 feet AGL
Weather: no significant weather observed at this time

METAR text: URWW 190300Z 23006MPS 9999 BKN014 02/M00 Q1015 R24/710160 NOSIG
Conditions at: URWW (VOLGOGRAD/GUMRAK, RU) observed 0300 UTC 19 January 2019
Temperature: 2.0°C (36°F)
Dewpoint: 0.0°C (32°F) [RH = 87%]
Pressure (altimeter): 29.97 inches Hg (1015.0 mb)
Winds: from the SW (230 degrees) at 14 MPH (12 knots; 6.2 m/s)
Visibility: 6 or more miles (10+ km)
Ceiling: 1400 feet AGL
Clouds: broken clouds at 1400 feet AGL
Weather: no significant weather observed at this time

METAR text: URWW 190230Z 23007MPS 9999 BKN047 02/M00 Q1015 R24/710160 NOSIG
Conditions at: URWW (VOLGOGRAD/GUMRAK, RU) observed 0230 UTC 19 January 2019
Temperature: 2.0°C (36°F)
Dewpoint: 0.0°C (32°F) [RH = 87%]
Pressure (altimeter): 29.97 inches Hg (1015.0 mb)
Winds: from the SW (230 degrees) at 16 MPH (14 knots; 7.2 m/s)
Visibility: 6 or more miles (10+ km)
Ceiling: 4700 feet AGL
Clouds: broken clouds at 4700 feet AGL
Weather: no significant weather observed at this time

METAR text: URWW 190200Z 24006MPS 9999 BKN043 02/M00 Q1015 R24/710160 NOSIG
Conditions at: URWW (VOLGOGRAD/GUMRAK, RU) observed 0200 UTC 19 January 2019
Temperature: 2.0°C (36°F)
Dewpoint: 0.0°C (32°F) [RH = 87%]
Pressure (altimeter): 29.97 inches Hg (1015.0 mb)
Winds: from the WSW (240 degrees) at 14 MPH (12 knots; 6.2 m/s)
Visibility: 6 or more miles (10+ km)
Ceiling: 4300 feet AGL
Clouds: broken clouds at 4300 feet AGL
Weather: no significant weather observed at this time

METAR text: URWW 190130Z 23008MPS 9999 BKN042 02/M00 Q1015 R24/710160 NOSIG
Conditions at: URWW (VOLGOGRAD/GUMRAK, RU) observed 0130 UTC 19 January 2019
Temperature: 2.0°C (36°F)
Dewpoint: 0.0°C (32°F) [RH = 87%]
Pressure (altimeter): 29.97 inches Hg (1015.0 mb)
Winds: from the SW (230 degrees) at 18 MPH (16 knots; 8.2 m/s)
Visibility: 6 or more miles (10+ km)
Ceiling: 4200 feet AGL
Clouds: broken clouds at 4200 feet AGL
Weather: no significant weather observed at this time

METAR text: URWW 190100Z 23007MPS 9999 BKN018 02/M00 Q1015 R24/710160 NOSIG
Conditions at: URWW (VOLGOGRAD/GUMRAK, RU) observed 0100 UTC 19 January 2019
Temperature: 2.0°C (36°F)
Dewpoint: 0.0°C (32°F) [RH = 87%]
Pressure (altimeter): 29.97 inches Hg (1015.0 mb)
Winds: from the SW (230 degrees) at 16 MPH (14 knots; 7.2 m/s)
Visibility: 6 or more miles (10+ km)
Ceiling: 1800 feet AGL
Clouds: broken clouds at 1800 feet AGL
Weather: no significant weather observed at this time

METAR text: URWW 190030Z 23008MPS 9999 BKN020 02/M00 Q1016 R24/710160 NOSIG
Conditions at: URWW (VOLGOGRAD/GUMRAK, RU) observed 0030 UTC 19 January 2019
Temperature: 2.0°C (36°F)
Dewpoint: 0.0°C (32°F) [RH = 87%]
Pressure (altimeter): 30.00 inches Hg (1016.0 mb)
Winds: from the SW (230 degrees) at 18 MPH (16 knots; 8.2 m/s)
Visibility: 6 or more miles (10+ km)
Ceiling: 2000 feet AGL
Clouds: broken clouds at 2000 feet AGL
Weather: no significant weather observed at this time

METAR text: URWW 190000Z 22007MPS 9999 BKN018 01/M00 Q1016 R24/710160 NOSIG
Conditions at: URWW (VOLGOGRAD/GUMRAK, RU) observed 0000 UTC 19 January 2019
Temperature: 1.0°C (34°F)
Dewpoint: 0.0°C (32°F) [RH = 93%]
Pressure (altimeter): 30.00 inches Hg (1016.0 mb)
Winds: from the SW (220 degrees) at 16 MPH (14 knots; 7.2 m/s)
Visibility: 6 or more miles (10+ km)
Ceiling: 1800 feet AGL
Clouds: broken clouds at 1800 feet AGL
Weather: no significant weather observed at this time

METAR text: URWW 182330Z 23007MPS 9999 BKN021 01/M00 Q1016 R24/710160 NOSIG
Conditions at: URWW (VOLGOGRAD/GUMRAK, RU) observed 2330 UTC 18 January 2019
Temperature: 1.0°C (34°F)
Dewpoint: 0.0°C (32°F) [RH = 93%]
Pressure (altimeter): 30.00 inches Hg (1016.0 mb)
Winds: from the SW (230 degrees) at 16 MPH (14 knots; 7.2 m/s)
Visibility: 6 or more miles (10+ km)
Ceiling: 2100 feet AGL
Clouds: broken clouds at 2100 feet AGL
Weather: no significant weather observed at this time

METAR text: URWW 182300Z 23007MPS 9999 BKN038 02/00 Q1016 R24/710160 TEMPO 0300 FZFG OVC002
Conditions at: URWW (VOLGOGRAD/GUMRAK, RU) observed 2300 UTC 18 January 2019
Temperature: 2.0°C (36°F)
Dewpoint: 0.0°C (32°F) [RH = 87%]
Pressure (altimeter): 30.00 inches Hg (1016.0 mb)
Winds: from the SW (230 degrees) at 16 MPH (14 knots; 7.2 m/s)
Visibility: 6 or more miles (10+ km)
Ceiling: 3800 feet AGL
Clouds: broken clouds at 3800 feet AGL
Weather: no significant weather observed at this time

METAR text: URWW 182230Z 22007MPS 9999 BKN037 01/M00 Q1017 R24/710160 TEMPO 0300 FZFG OVC002
Conditions at: URWW (VOLGOGRAD/GUMRAK, RU) observed 2230 UTC 18 January 2019
Temperature: 1.0°C (34°F)
Dewpoint: 0.0°C (32°F) [RH = 93%]
Pressure (altimeter): 30.03 inches Hg (1017.0 mb)
Winds: from the SW (220 degrees) at 16 MPH (14 knots; 7.2 m/s)
Visibility: 6 or more miles (10+ km)
Ceiling: 3700 feet AGL
Clouds: broken clouds at 3700 feet AGL
Weather: no significant weather observed at this time

METAR text: URWW 182200Z 22006MPS 9999 BKN030 01/M00 Q1017 R24/710160 TEMPO 0300 FZFG OVC002
Conditions at: URWW (VOLGOGRAD/GUMRAK, RU) observed 2200 UTC 18 January 2019
Temperature: 1.0°C (34°F)
Dewpoint: 0.0°C (32°F) [RH = 93%]
Pressure (altimeter): 30.03 inches Hg (1017.0 mb)
Winds: from the SW (220 degrees) at 14 MPH (12 knots; 6.2 m/s)
Visibility: 6 or more miles (10+ km)
Ceiling: 3000 feet AGL
Clouds: broken clouds at 3000 feet AGL
Weather: no significant weather observed at this time

METAR text: URWW 182130Z 23007MPS 9999 BKN025 01/M00 Q1017 R24/710160 TEMPO 0300 FZFG OVC002
Conditions at: URWW (VOLGOGRAD/GUMRAK, RU) observed 2130 UTC 18 January 2019
Temperature: 1.0°C (34°F)
Dewpoint: 0.0°C (32°F) [RH = 93%]
Pressure (altimeter): 30.03 inches Hg (1017.0 mb)
Winds: from the SW (230 degrees) at 16 MPH (14 knots; 7.2 m/s)
Visibility: 6 or more miles (10+ km)
Ceiling: 2500 feet AGL
Clouds: broken clouds at 2500 feet AGL
Weather: no significant weather observed at this time

METAR text: URWW 182100Z 22006MPS 9999 BKN023 00/M01 Q1018 R24/710160 TEMPO 0300 FZFG OVC002
Conditions at: URWW (VOLGOGRAD/GUMRAK, RU) observed 2100 UTC 18 January 2019
Temperature: 0.0°C (32°F)
Dewpoint: -1.0°C (30°F) [RH = 93%]
Pressure (altimeter): 30.06 inches Hg (1018.0 mb)
Winds: from the SW (220 degrees) at 14 MPH (12 knots; 6.2 m/s)
Visibility: 6 or more miles (10+ km)
Ceiling: 2300 feet AGL
Clouds: broken clouds at 2300 feet AGL
Weather: no significant weather observed at this time

METAR text: URWW 182030Z 22005MPS 9999 BKN025 M00/M01 Q1018 R24/710160 TEMPO 0300 FZFG OVC002
Conditions at: URWW (VOLGOGRAD/GUMRAK, RU) observed 2030 UTC 18 January 2019
Temperature: 0.0°C (32°F)
Dewpoint: -1.0°C (30°F) [RH = 93%]
Pressure (altimeter): 30.06 inches Hg (1018.0 mb)
Winds: from the SW (220 degrees) at 12 MPH (10 knots; 5.1 m/s)
Visibility: 6 or more miles (10+ km)
Ceiling: 2500 feet AGL
Clouds: broken clouds at 2500 feet AGL
Weather: no significant weather observed at this time

METAR text: URWW 182000Z 22007MPS 9999 BKN025 M00/M02 Q1018 R24/710160 TEMPO 0300 FZFG OVC002
Conditions at: URWW (VOLGOGRAD/GUMRAK, RU) observed 2000 UTC 18 January 2019
Temperature: 0.0°C (32°F)
Dewpoint: -2.0°C (28°F) [RH = 86%]
Pressure (altimeter): 30.06 inches Hg (1018.0 mb)
Winds: from the SW (220 degrees) at 16 MPH (14 knots; 7.2 m/s)
Visibility: 6 or more miles (10+ km)
Ceiling: 2500 feet AGL
Clouds: broken clouds at 2500 feet AGL
Weather: no significant weather observed at this time

METAR text: URWW 181930Z 22006MPS 9999 BKN025 M01/M02 Q1018 R24/710160 TEMPO 0300 FZFG OVC002
Conditions at: URWW (VOLGOGRAD/GUMRAK, RU) observed 1930 UTC 18 January 2019
Temperature: -1.0°C (30°F)
Dewpoint: -2.0°C (28°F) [RH = 93%]
Pressure (altimeter): 30.06 inches Hg (1018.0 mb)
Winds: from the SW (220 degrees) at 14 MPH (12 knots; 6.2 m/s)
Visibility: 6 or more miles (10+ km)
Ceiling: 2500 feet AGL
Clouds: broken clouds at 2500 feet AGL
Weather: no significant weather observed at this time

METAR text: URWW 181900Z 22005MPS 9999 BKN024 M01/M02 Q1018 R24/710160 TEMPO 0300 FZFG OVC002
Conditions at: URWW (VOLGOGRAD/GUMRAK, RU) observed 1900 UTC 18 January 2019
Temperature: -1.0°C (30°F)
Dewpoint: -2.0°C (28°F) [RH = 93%]
Pressure (altimeter): 30.06 inches Hg (1018.0 mb)
Winds: from the SW (220 degrees) at 12 MPH (10 knots; 5.1 m/s)
Visibility: 6 or more miles (10+ km)
Ceiling: 2400 feet AGL
Clouds: broken clouds at 2400 feet AGL
Weather: no significant weather observed at this time

METAR text: URWW 181830Z 22004MPS 9999 BKN024 M02/M03 Q1018 R24/710160 TEMPO 0300 FZFG OVC002
Conditions at: URWW (VOLGOGRAD/GUMRAK, RU) observed 1830 UTC 18 January 2019
Temperature: -2.0°C (28°F)
Dewpoint: -3.0°C (27°F) [RH = 93%]
Pressure (altimeter): 30.06 inches Hg (1018.0 mb)
Winds: from the SW (220 degrees) at 9 MPH (8 knots; 4.1 m/s)
Visibility: 6 or more miles (10+ km)
Ceiling: 2400 feet AGL
Clouds: broken clouds at 2400 feet AGL
Weather: no significant weather observed at this time

METAR text: URWW 181800Z 24004MPS 6000 BKN024 M02/M03 Q1018 R24/710160 TEMPO 0300 FZFG OVC002
Conditions at: URWW (VOLGOGRAD/GUMRAK, RU) observed 1800 UTC 18 January 2019
Temperature: -2.0°C (28°F)
Dewpoint: -3.0°C (27°F) [RH = 93%]
Pressure (altimeter): 30.06 inches Hg (1018.0 mb)
Winds: from the WSW (240 degrees) at 9 MPH (8 knots; 4.1 m/s)
Visibility: 4 miles ( 6 km)
Ceiling: 2400 feet AGL
Clouds: broken clouds at 2400 feet AGL
Weather: no significant weather observed at this time

METAR text: URWW 181730Z 25002MPS 6000 SCT002 BKN023 M03/M03 Q1018 R24/710160 TEMPO 0300 FZFG OVC002 RMK OBST OBSC
Conditions at: URWW (VOLGOGRAD/GUMRAK, RU) observed 1730 UTC 18 January 2019
Temperature: -3.0°C (27°F)
Dewpoint: -3.0°C (27°F) [RH = 100%]
Pressure (altimeter): 30.06 inches Hg (1018.0 mb)
Winds: from the WSW (250 degrees) at 5 MPH (4 knots; 2.1 m/s)
Visibility: 4 miles ( 6 km)
Ceiling: 2300 feet AGL
Clouds: scattered clouds at 200 feet AGL
broken clouds at 2300 feet AGL
Weather: no significant weather observed at this time

METAR text: URWW 181700Z 25003MPS 6000 SCT002 BKN025 M03/M03 Q1019 R24/710160 TEMPO 0300 FZFG OVC002 RMK OBST OBSC
Conditions at: URWW (VOLGOGRAD/GUMRAK, RU) observed 1700 UTC 18 January 2019
Temperature: -3.0°C (27°F)
Dewpoint: -3.0°C (27°F) [RH = 100%]
Pressure (altimeter): 30.09 inches Hg (1019.0 mb)
Winds: from the WSW (250 degrees) at 7 MPH (6 knots; 3.1 m/s)
Visibility: 4 miles ( 6 km)
Ceiling: 2500 feet AGL
Clouds: scattered clouds at 200 feet AGL
broken clouds at 2500 feet AGL
Weather: no significant weather observed at this time

METAR text: URWW 181630Z 25004MPS 7000 SCT003 BKN028 M03/M03 Q1018 R24/710160 TEMPO 0300 FZFG OVC002 RMK OBST OBSC
Conditions at: URWW (VOLGOGRAD/GUMRAK, RU) observed 1630 UTC 18 January 2019
Temperature: -3.0°C (27°F)
Dewpoint: -3.0°C (27°F) [RH = 100%]
Pressure (altimeter): 30.06 inches Hg (1018.0 mb)
Winds: from the WSW (250 degrees) at 9 MPH (8 knots; 4.1 m/s)
Visibility: 4 miles ( 7 km)
Ceiling: 2800 feet AGL
Clouds: scattered clouds at 300 feet AGL
broken clouds at 2800 feet AGL
Weather: no significant weather observed at this time

METAR text: URWW 181600Z 24006MPS 9999 BKN026 M02/M03 Q1018 R24/710160 NOSIG
Conditions at: URWW (VOLGOGRAD/GUMRAK, RU) observed 1600 UTC 18 January 2019
Temperature: -2.0°C (28°F)
Dewpoint: -3.0°C (27°F) [RH = 93%]
Pressure (altimeter): 30.06 inches Hg (1018.0 mb)
Winds: from the WSW (240 degrees) at 14 MPH (12 knots; 6.2 m/s)
Visibility: 6 or more miles (10+ km)
Ceiling: 2600 feet AGL
Clouds: broken clouds at 2600 feet AGL
Weather: no significant weather observed at this time

METAR text: URWW 181530Z 24005MPS 9999 BKN019 M02/M03 Q1018 R24/710160 NOSIG
Conditions at: URWW (VOLGOGRAD/GUMRAK, RU) observed 1530 UTC 18 January 2019
Temperature: -2.0°C (28°F)
Dewpoint: -3.0°C (27°F) [RH = 93%]
Pressure (altimeter): 30.06 inches Hg (1018.0 mb)
Winds: from the WSW (240 degrees) at 12 MPH (10 knots; 5.1 m/s)
Visibility: 6 or more miles (10+ km)
Ceiling: 1900 feet AGL
Clouds: broken clouds at 1900 feet AGL
Weather: no significant weather observed at this time

METAR text: URWW 181500Z 24008MPS 9999 BKN017 M02/M03 Q1018 R24/710160 NOSIG
Conditions at: URWW (VOLGOGRAD/GUMRAK, RU) observed 1500 UTC 18 January 2019
Temperature: -2.0°C (28°F)
Dewpoint: -3.0°C (27°F) [RH = 93%]
Pressure (altimeter): 30.06 inches Hg (1018.0 mb)
Winds: from the WSW (240 degrees) at 18 MPH (16 knots; 8.2 m/s)
Visibility: 6 or more miles (10+ km)
Ceiling: 1700 feet AGL
Clouds: broken clouds at 1700 feet AGL
Weather: no significant weather observed at this time

METAR text: URWW 181430Z 23006MPS 9999 SCT023 M02/M04 Q1018 R24/710160 NOSIG
Conditions at: URWW (VOLGOGRAD/GUMRAK, RU) observed 1430 UTC 18 January 2019
Temperature: -2.0°C (28°F)
Dewpoint: -4.0°C (25°F) [RH = 86%]
Pressure (altimeter): 30.06 inches Hg (1018.0 mb)
Winds: from the SW (230 degrees) at 14 MPH (12 knots; 6.2 m/s)
Visibility: 6 or more miles (10+ km)
Ceiling: at least 12,000 feet AGL
Clouds: scattered clouds at 2300 feet AGL
Weather: no significant weather observed at this time

METAR text: URWW 181400Z 22005MPS CAVOK M02/M04 Q1018 R24/710160 NOSIG
Conditions at: URWW (VOLGOGRAD/GUMRAK, RU) observed 1400 UTC 18 January 2019
Temperature: -2.0°C (28°F)
Dewpoint: -4.0°C (25°F) [RH = 86%]
Pressure (altimeter): 30.06 inches Hg (1018.0 mb)
Winds: from the SW (220 degrees) at 12 MPH (10 knots; 5.1 m/s)
Visibility: 6 or more miles (10+ km)
Ceiling: ceiling and visibility are OK
Clouds: unknown
Weather: no significant weather observed at this time

METAR text: URWW 181330Z 24005MPS CAVOK M01/M04 Q1018 R24/710160 NOSIG
Conditions at: URWW (VOLGOGRAD/GUMRAK, RU) observed 1330 UTC 18 January 2019
Temperature: -1.0°C (30°F)
Dewpoint: -4.0°C (25°F) [RH = 80%]
Pressure (altimeter): 30.06 inches Hg (1018.0 mb)
Winds: from the WSW (240 degrees) at 12 MPH (10 knots; 5.1 m/s)
Visibility: 6 or more miles (10+ km)
Ceiling: ceiling and visibility are OK
Clouds: unknown
Weather: no significant weather observed at this time

METAR text: URWW 181300Z 24005MPS CAVOK M01/M04 Q1018 R24/710160 NOSIG
Conditions at: URWW (VOLGOGRAD/GUMRAK, RU) observed 1300 UTC 18 January 2019
Temperature: -1.0°C (30°F)
Dewpoint: -4.0°C (25°F) [RH = 80%]
Pressure (altimeter): 30.06 inches Hg (1018.0 mb)
Winds: from the WSW (240 degrees) at 12 MPH (10 knots; 5.1 m/s)
Visibility: 6 or more miles (10+ km)
Ceiling: ceiling and visibility are OK
Clouds: unknown
Weather: no significant weather observed at this time

METAR text: URWW 181230Z 24007MPS 9999 SCT021 00/M03 Q1018 R24/710160 NOSIG
Conditions at: URWW (VOLGOGRAD/GUMRAK, RU) observed 1230 UTC 18 January 2019
Temperature: 0.0°C (32°F)
Dewpoint: -3.0°C (27°F) [RH = 80%]
Pressure (altimeter): 30.06 inches Hg (1018.0 mb)
Winds: from the WSW (240 degrees) at 16 MPH (14 knots; 7.2 m/s)
Visibility: 6 or more miles (10+ km)
Ceiling: at least 12,000 feet AGL
Clouds: scattered clouds at 2100 feet AGL
Weather: no significant weather observed at this time

METAR text: URWW 181200Z 24007MPS 9999 BKN018 00/M03 Q1018 R24/710160 NOSIG
Conditions at: URWW (VOLGOGRAD/GUMRAK, RU) observed 1200 UTC 18 January 2019
Temperature: 0.0°C (32°F)
Dewpoint: -3.0°C (27°F) [RH = 80%]
Pressure (altimeter): 30.06 inches Hg (1018.0 mb)
Winds: from the WSW (240 degrees) at 16 MPH (14 knots; 7.2 m/s)
Visibility: 6 or more miles (10+ km)
Ceiling: 1800 feet AGL
Clouds: broken clouds at 1800 feet AGL
Weather: no significant weather observed at this time

METAR text: URWW 181130Z 23007MPS 9999 BKN015 00/M03 Q1018 R24/710160 NOSIG
Conditions at: URWW (VOLGOGRAD/GUMRAK, RU) observed 1130 UTC 18 January 2019
Temperature: 0.0°C (32°F)
Dewpoint: -3.0°C (27°F) [RH = 80%]
Pressure (altimeter): 30.06 inches Hg (1018.0 mb)
Winds: from the SW (230 degrees) at 16 MPH (14 knots; 7.2 m/s)
Visibility: 6 or more miles (10+ km)
Ceiling: 1500 feet AGL
Clouds: broken clouds at 1500 feet AGL
Weather: no significant weather observed at this time

METAR text: URWW 181100Z 22008MPS 9999 SCT028 00/M03 Q1018 R24/710160 NOSIG
Conditions at: URWW (VOLGOGRAD/GUMRAK, RU) observed 1100 UTC 18 January 2019
Temperature: 0.0°C (32°F)
Dewpoint: -3.0°C (27°F) [RH = 80%]
Pressure (altimeter): 30.06 inches Hg (1018.0 mb)
Winds: from the SW (220 degrees) at 18 MPH (16 knots; 8.2 m/s)
Visibility: 6 or more miles (10+ km)
Ceiling: at least 12,000 feet AGL
Clouds: scattered clouds at 2800 feet AGL
Weather: no significant weather observed at this time

METAR text: URWW 181030Z 23009MPS 9999 SCT027 00/M03 Q1018 R24/710160 NOSIG
Conditions at: URWW (VOLGOGRAD/GUMRAK, RU) observed 1030 UTC 18 January 2019
Temperature: 0.0°C (32°F)
Dewpoint: -3.0°C (27°F) [RH = 80%]
Pressure (altimeter): 30.06 inches Hg (1018.0 mb)
Winds: from the SW (230 degrees) at 20 MPH (17 knots; 8.7 m/s)
Visibility: 6 or more miles (10+ km)
Ceiling: at least 12,000 feet AGL
Clouds: scattered clouds at 2700 feet AGL
Weather: no significant weather observed at this time

METAR text: URWW 181000Z 22009MPS CAVOK M00/M03 Q1018 R24/710160 NOSIG
Conditions at: URWW (VOLGOGRAD/GUMRAK, RU) observed 1000 UTC 18 January 2019
Temperature: 0.0°C (32°F)
Dewpoint: -3.0°C (27°F) [RH = 80%]
Pressure (altimeter): 30.06 inches Hg (1018.0 mb)
Winds: from the SW (220 degrees) at 20 MPH (17 knots; 8.7 m/s)
Visibility: 6 or more miles (10+ km)
Ceiling: ceiling and visibility are OK
Clouds: unknown
Weather: no significant weather observed at this time

METAR text: URWW 180930Z 22008MPS CAVOK M01/M04 Q1018 R24/710160 NOSIG
Conditions at: URWW (VOLGOGRAD/GUMRAK, RU) observed 0930 UTC 18 January 2019
Temperature: -1.0°C (30°F)
Dewpoint: -4.0°C (25°F) [RH = 80%]
Pressure (altimeter): 30.06 inches Hg (1018.0 mb)
Winds: from the SW (220 degrees) at 18 MPH (16 knots; 8.2 m/s)
Visibility: 6 or more miles (10+ km)
Ceiling: ceiling and visibility are OK
Clouds: unknown
Weather: no significant weather observed at this time

METAR text: URWW 180900Z 22009MPS 9999 SCT036 M01/M04 Q1019 R24/710160 NOSIG
Conditions at: URWW (VOLGOGRAD/GUMRAK, RU) observed 0900 UTC 18 January 2019
Temperature: -1.0°C (30°F)
Dewpoint: -4.0°C (25°F) [RH = 80%]
Pressure (altimeter): 30.09 inches Hg (1019.0 mb)
Winds: from the SW (220 degrees) at 20 MPH (17 knots; 8.7 m/s)
Visibility: 6 or more miles (10+ km)
Ceiling: at least 12,000 feet AGL
Clouds: scattered clouds at 3600 feet AGL
Weather: no significant weather observed at this time

METAR text: URWW 180830Z 22009MPS 9999 SCT036 M02/M04 Q1019 R24/710160 NOSIG
Conditions at: URWW (VOLGOGRAD/GUMRAK, RU) observed 0830 UTC 18 January 2019
Temperature: -2.0°C (28°F)
Dewpoint: -4.0°C (25°F) [RH = 86%]
Pressure (altimeter): 30.09 inches Hg (1019.0 mb)
Winds: from the SW (220 degrees) at 20 MPH (17 knots; 8.7 m/s)
Visibility: 6 or more miles (10+ km)
Ceiling: at least 12,000 feet AGL
Clouds: scattered clouds at 3600 feet AGL
Weather: no significant weather observed at this time

METAR text: URWW 180800Z 22008MPS 9999 SCT037 M02/M04 Q1019 R24/710160 NOSIG
Conditions at: URWW (VOLGOGRAD/GUMRAK, RU) observed 0800 UTC 18 January 2019
Temperature: -2.0°C (28°F)
Dewpoint: -4.0°C (25°F) [RH = 86%]
Pressure (altimeter): 30.09 inches Hg (1019.0 mb)
Winds: from the SW (220 degrees) at 18 MPH (16 knots; 8.2 m/s)
Visibility: 6 or more miles (10+ km)
Ceiling: at least 12,000 feet AGL
Clouds: scattered clouds at 3700 feet AGL
Weather: no significant weather observed at this time

METAR text: URWW 180730Z 22007MPS CAVOK M04/M04 Q1020 R24/710160 NOSIG
Conditions at: URWW (VOLGOGRAD/GUMRAK, RU) observed 0730 UTC 18 January 2019
Temperature: -4.0°C (25°F)
Dewpoint: -4.0°C (25°F) [RH = 100%]
Pressure (altimeter): 30.12 inches Hg (1020.0 mb)
Winds: from the SW (220 degrees) at 16 MPH (14 knots; 7.2 m/s)
Visibility: 6 or more miles (10+ km)
Ceiling: ceiling and visibility are OK
Clouds: unknown
Weather: no significant weather observed at this time

METAR text: URWW 180700Z 22006MPS 9999 SCT036 M05/M05 Q1019 R24/710160 NOSIG
Conditions at: URWW (VOLGOGRAD/GUMRAK, RU) observed 0700 UTC 18 January 2019
Temperature: -5.0°C (23°F)
Dewpoint: -5.0°C (23°F) [RH = 100%]
Pressure (altimeter): 30.09 inches Hg (1019.0 mb)
Winds: from the SW (220 degrees) at 14 MPH (12 knots; 6.2 m/s)
Visibility: 6 or more miles (10+ km)
Ceiling: at least 12,000 feet AGL
Clouds: scattered clouds at 3600 feet AGL
Weather: no significant weather observed at this time

METAR text: URWW 180630Z 20002MPS 9999 BKN040 M05/M06 Q1020 R24/710160 NOSIG
Conditions at: URWW (VOLGOGRAD/GUMRAK, RU) observed 0630 UTC 18 January 2019
Temperature: -5.0°C (23°F)
Dewpoint: -6.0°C (21°F) [RH = 93%]
Pressure (altimeter): 30.12 inches Hg (1020.0 mb)
Winds: from the SSW (200 degrees) at 5 MPH (4 knots; 2.1 m/s)
Visibility: 6 or more miles (10+ km)
Ceiling: 4000 feet AGL
Clouds: broken clouds at 4000 feet AGL
Weather: no significant weather observed at this time

METAR text: URWW 180600Z 23003MPS 9999 SCT042 M06/M07 Q1020 R24/710160 NOSIG
Conditions at: URWW (VOLGOGRAD/GUMRAK, RU) observed 0600 UTC 18 January 2019
Temperature: -6.0°C (21°F)
Dewpoint: -7.0°C (19°F) [RH = 93%]
Pressure (altimeter): 30.12 inches Hg (1020.0 mb)
Winds: from the SW (230 degrees) at 7 MPH (6 knots; 3.1 m/s)
Visibility: 6 or more miles (10+ km)
Ceiling: at least 12,000 feet AGL
Clouds: scattered clouds at 4200 feet AGL
Weather: no significant weather observed at this time

METAR text: URWW 180530Z 21002MPS CAVOK M07/M08 Q1020 R24/710160 NOSIG
Conditions at: URWW (VOLGOGRAD/GUMRAK, RU) observed 0530 UTC 18 January 2019
Temperature: -7.0°C (19°F)
Dewpoint: -8.0°C (18°F) [RH = 93%]
Pressure (altimeter): 30.12 inches Hg (1020.0 mb)
Winds: from the SSW (210 degrees) at 5 MPH (4 knots; 2.1 m/s)
Visibility: 6 or more miles (10+ km)
Ceiling: ceiling and visibility are OK
Clouds: unknown
Weather: no significant weather observed at this time

METAR text: URWW 180500Z 19003MPS CAVOK M08/M08 Q1019 R24/710160 NOSIG
Conditions at: URWW (VOLGOGRAD/GUMRAK, RU) observed 0500 UTC 18 January 2019
Temperature: -8.0°C (18°F)
Dewpoint: -8.0°C (18°F) [RH = 100%]
Pressure (altimeter): 30.09 inches Hg (1019.0 mb)
Winds: from the S (190 degrees) at 7 MPH (6 knots; 3.1 m/s)
Visibility: 6 or more miles (10+ km)
Ceiling: ceiling and visibility are OK
Clouds: unknown
Weather: no significant weather observed at this time

METAR text: URWW 180430Z 21004MPS 8000 SCT006 M08/M09 Q1019 R24/710160 NOSIG RMK OBST OBSC
Conditions at: URWW (VOLGOGRAD/GUMRAK, RU) observed 0430 UTC 18 January 2019
Temperature: -8.0°C (18°F)
Dewpoint: -9.0°C (16°F) [RH = 92%]
Pressure (altimeter): 30.09 inches Hg (1019.0 mb)
Winds: from the SSW (210 degrees) at 9 MPH (8 knots; 4.1 m/s)
Visibility: 5 miles ( 8 km)
Ceiling: at least 12,000 feet AGL
Clouds: scattered clouds at 600 feet AGL
Weather: no significant weather observed at this time

METAR text: URWW 180400Z 20003MPS 0600 R24/1300N FZFG VV001 M07/M08 Q1020 R24/710160 NOSIG RMK QBB050 OBST OBSC
Conditions at: URWW (VOLGOGRAD/GUMRAK, RU) observed 0400 UTC 18 January 2019
Temperature: -7.0°C (19°F)
Dewpoint: -8.0°C (18°F) [RH = 93%]
Pressure (altimeter): 30.12 inches Hg (1020.0 mb)
Winds: from the SSW (200 degrees) at 7 MPH (6 knots; 3.1 m/s)
Visibility: 0.37 miles (0.60 km)
Ceiling: indefinite ceiling with vertical visibility of 100 feet AGL
Clouds: obscured sky
Weather: FZFG  (freezing fog)

METAR text: URWW 180330Z 21003MPS 0550 R24/1200U FZFG VV002 M07/M08 Q1020 R24/710160 NOSIG RMK QBB060 OBST OBSC
Conditions at: URWW (VOLGOGRAD/GUMRAK, RU) observed 0330 UTC 18 January 2019
Temperature: -7.0°C (19°F)
Dewpoint: -8.0°C (18°F) [RH = 93%]
Pressure (altimeter): 30.12 inches Hg (1020.0 mb)
Winds: from the SSW (210 degrees) at 7 MPH (6 knots; 3.1 m/s)
Visibility: 0.34 miles (0.55 km)
Ceiling: indefinite ceiling with vertical visibility of 200 feet AGL
Clouds: obscured sky
Weather: FZFG  (freezing fog)

METAR text: URWW 180300Z 22003MPS 0700 0400NE R24/0900N FZFG VV002 M07/M08 Q1020 R24/710160 NOSIG RMK QBB060 OBST OBSC
Conditions at: URWW (VOLGOGRAD/GUMRAK, RU) observed 0300 UTC 18 January 2019
Temperature: -7.0°C (19°F)
Dewpoint: -8.0°C (18°F) [RH = 93%]
Pressure (altimeter): 30.12 inches Hg (1020.0 mb)
Winds: from the SW (220 degrees) at 7 MPH (6 knots; 3.1 m/s)
Visibility: 0.43 miles (0.69 km)
Ceiling: indefinite ceiling with vertical visibility of 200 feet AGL
Clouds: obscured sky
Weather: FZFG  (freezing fog)

METAR text: URWW 180230Z 22005MPS 0400 0350NE R24/1000U FZFG VV001 M07/M07 Q1020 R24/710160 NOSIG RMK QBB050 OBST OBSC
Conditions at: URWW (VOLGOGRAD/GUMRAK, RU) observed 0230 UTC 18 January 2019
Temperature: -7.0°C (19°F)
Dewpoint: -7.0°C (19°F) [RH = 100%]
Pressure (altimeter): 30.12 inches Hg (1020.0 mb)
Winds: from the SW (220 degrees) at 12 MPH (10 knots; 5.1 m/s)
Visibility: 0.25 miles (0.40 km)
Ceiling: indefinite ceiling with vertical visibility of 100 feet AGL
Clouds: obscured sky
Weather: FZFG  (freezing fog)

METAR text: URWW 180200Z 23004MPS 0350 0300NW R24/0800D FZFG VV002 M07/M07 Q1020 R24/710160 NOSIG RMK QBB060 OBST OBSC
Conditions at: URWW (VOLGOGRAD/GUMRAK, RU) observed 0200 UTC 18 January 2019
Temperature: -7.0°C (19°F)
Dewpoint: -7.0°C (19°F) [RH = 100%]
Pressure (altimeter): 30.12 inches Hg (1020.0 mb)
Winds: from the SW (230 degrees) at 9 MPH (8 knots; 4.1 m/s)
Visibility: 0.22 miles (0.35 km)
Ceiling: indefinite ceiling with vertical visibility of 200 feet AGL
Clouds: obscured sky
Weather: FZFG  (freezing fog)

METAR text: URWW 180130Z 25003MPS 0200 R06/0650N FZFG VV001 M07/M07 Q1020 R06/710160 NOSIG RMK QBB050 OBST OBSC
Conditions at: URWW (VOLGOGRAD/GUMRAK, RU) observed 0130 UTC 18 January 2019
Temperature: -7.0°C (19°F)
Dewpoint: -7.0°C (19°F) [RH = 100%]
Pressure (altimeter): 30.12 inches Hg (1020.0 mb)
Winds: from the WSW (250 degrees) at 7 MPH (6 knots; 3.1 m/s)
Visibility: 0.12 miles (0.19 km)
Ceiling: indefinite ceiling with vertical visibility of 100 feet AGL
Clouds: obscured sky
Weather: FZFG  (freezing fog)

Forecast for: AMD
Text: TAF AMD URWW 191156Z 1912/1921 23006G12MPS 0300 FZDZ FZFG OVC002 BKN020CB
Forecast period: 1200 to 2100 UTC 19 January 2019
Forecast type: FROM: standard forecast or significant change
Winds: from the SW (230 degrees) at 14 MPH (12 knots; 6.2 m/s)
gusting to 26 MPH (23 knots; 11.8 m/s)
Visibility: 0.19 miles (0.31 km)
Ceiling: 200 feet AGL
Clouds: overcast cloud deck at 200 feet AGL
broken clouds at 2000 feet AGL
Weather: FZDZ FZFG  (freezing drizzle, freezing fog)
Text: TEMPO 1912/1921 26007G13MPS 3100 -SHSNRA BR BKN003 BKN020CB
Forecast period: 1200 to 2100 UTC 19 January 2019
Forecast type: TEMPORARY: The following changes expected for less than half the time period
Winds: from the W (260 degrees) at 16 MPH (14 knots; 7.2 m/s)
gusting to 29 MPH (25 knots; 12.9 m/s)
Visibility: 1.93 miles (3.11 km)
Ceiling: 300 feet AGL
Clouds: broken clouds at 300 feet AGL
broken clouds at 2000 feet AGL
Weather: -SHSN -SHRA BR  (light snow showers, light rain showers, mist)